FNSA

Saurimo Airport

Saurimo, Angola
METAR FNSA 171600Z 00000KT 9999 FEW020 BKN080 20/19 Q1018
Observed Flight Rules
Feb-17 @ 16:00 UTC (15 hours ago) Visual Flight Rules
Wind Visibility Clouds
Calm 10,000+ meters
  • Few at 2,000' AGL
  • Broken at 8,000' AGL
Temperatures Readings
Current 20°C / 68°F
Dewpoint 19°C / 66°F
Humidity 94%
Altimeter 30.06" Hg
Pressure 1018 hPa
Elevation 1093
METAR FNSA 171600Z 00000KT 9999 FEW020 BKN080 20/19 Q1018
Observed Flight Rules
Feb-17 @ 16:00 UTC
(15 hours ago)
VFR
Wind Visibility
Calm 10,000+ meters
Clouds
  • Few at 2,000' AGL
  • Broken at 8,000' AGL
Temperature Dewpoint
20°C / 68°F 19°C / 66°F
Humidity Altimeter Pressure
94% 30.06" Hg 1018 hPa